createdAt,value
2024-05-09T00:00:22.315Z,751.0000
2024-05-09T00:01:18.970Z,751.0000
2024-05-09T00:02:21.490Z,753.0000
2024-05-09T00:03:24.061Z,754.0000
2024-05-09T00:04:26.635Z,757.0000
2024-05-09T00:05:29.365Z,758.0000
2024-05-09T00:06:31.867Z,760.0000
2024-05-09T00:07:34.368Z,760.0000
2024-05-09T00:08:37.219Z,762.0000
2024-05-09T00:09:39.522Z,764.0000
2024-05-09T00:10:42.206Z,765.0000
2024-05-09T00:11:44.733Z,763.0000
2024-05-09T00:12:47.317Z,761.0000
2024-05-09T00:13:49.872Z,762.0000
2024-05-09T00:14:52.634Z,760.0000
2024-05-09T00:15:55.010Z,760.0000
2024-05-09T00:16:57.649Z,760.0000
2024-05-09T00:18:00.402Z,758.0000
2024-05-09T00:19:02.857Z,759.0000
2024-05-09T00:20:14.245Z,761.0000
2024-05-09T00:21:07.978Z,762.0000
2024-05-09T00:22:10.522Z,757.0000
2024-05-09T00:23:13.723Z,752.0000
2024-05-09T00:24:15.685Z,752.0000
2024-05-09T00:25:18.296Z,752.0000
2024-05-09T00:26:20.911Z,753.0000
2024-05-09T00:27:23.466Z,754.0000
2024-05-09T00:28:26.048Z,755.0000
2024-05-09T00:29:28.710Z,754.0000
2024-05-09T00:30:34.979Z,753.0000
2024-05-09T00:31:33.767Z,753.0000
2024-05-09T00:32:36.605Z,753.0000
2024-05-09T00:33:39.139Z,755.0000
2024-05-09T00:34:41.512Z,757.0000
2024-05-09T00:35:44.101Z,757.0000
2024-05-09T00:36:46.679Z,758.0000
2024-05-09T00:37:49.254Z,759.0000
2024-05-09T00:38:51.815Z,758.0000
2024-05-09T00:39:54.415Z,757.0000
2024-05-09T00:40:57.038Z,757.0000
2024-05-09T00:41:59.583Z,758.0000
2024-05-09T00:43:02.148Z,759.0000
2024-05-09T00:44:04.769Z,759.0000
2024-05-09T00:45:07.306Z,758.0000
2024-05-09T00:46:09.923Z,760.0000
2024-05-09T00:47:12.555Z,761.0000
2024-05-09T00:48:17.721Z,759.0000
2024-05-09T00:49:17.794Z,758.0000
2024-05-09T00:50:29.354Z,759.0000
2024-05-09T00:51:22.866Z,759.0000
2024-05-09T00:52:25.406Z,758.0000
2024-05-09T00:53:28.055Z,757.0000
2024-05-09T00:54:30.551Z,754.0000
2024-05-09T00:55:33.171Z,757.0000
2024-05-09T00:56:35.807Z,757.0000
2024-05-09T00:57:38.300Z,757.0000
2024-05-09T00:58:40.894Z,757.0000
2024-05-09T00:59:43.466Z,754.0000
2024-05-09T01:00:46.162Z,754.0000
2024-05-09T01:01:48.774Z,758.0000
2024-05-09T01:02:51.304Z,761.0000
2024-05-09T01:03:54.054Z,763.0000
2024-05-09T01:04:56.463Z,763.0000
2024-05-09T01:05:59.074Z,761.0000
2024-05-09T01:07:01.600Z,760.0000
2024-05-09T01:08:04.212Z,759.0000
2024-05-09T01:09:06.748Z,757.0000
2024-05-09T01:10:14.039Z,755.0000
2024-05-09T01:11:11.966Z,756.0000
2024-05-09T01:12:14.680Z,758.0000
2024-05-09T01:13:17.127Z,761.0000
2024-05-09T01:14:19.690Z,760.0000
2024-05-09T01:15:22.207Z,758.0000
2024-05-09T01:16:24.799Z,758.0000
2024-05-09T01:17:27.512Z,760.0000
2024-05-09T01:18:30.089Z,762.0000
2024-05-09T01:19:32.833Z,761.0000
2024-05-09T01:20:41.514Z,760.0000
2024-05-09T01:21:37.717Z,762.0000
2024-05-09T01:22:40.300Z,762.0000
2024-05-09T01:23:42.977Z,764.0000
2024-05-09T01:24:45.452Z,762.0000
2024-05-09T01:25:48.090Z,762.0000
2024-05-09T01:26:50.621Z,760.0000
2024-05-09T01:27:53.207Z,761.0000
2024-05-09T01:28:55.830Z,760.0000
2024-05-09T01:29:58.368Z,763.0000
2024-05-09T01:31:01.007Z,762.0000
2024-05-09T01:32:03.637Z,760.0000
2024-05-09T01:33:07.967Z,760.0000
2024-05-09T01:34:08.806Z,761.0000
2024-05-09T01:35:11.391Z,762.0000
2024-05-09T01:36:13.946Z,763.0000
2024-05-09T01:37:16.559Z,759.0000
2024-05-09T01:38:19.136Z,759.0000
2024-05-09T01:39:21.705Z,760.0000
2024-05-09T01:40:33.489Z,757.0000
2024-05-09T01:41:26.946Z,757.0000
2024-05-09T01:42:29.453Z,758.0000
2024-05-09T01:43:32.051Z,756.0000
2024-05-09T01:44:34.692Z,756.0000
2024-05-09T01:45:37.207Z,754.0000
2024-05-09T01:46:39.821Z,755.0000
2024-05-09T01:47:42.693Z,756.0000
2024-05-09T01:48:45.028Z,755.0000
2024-05-09T01:49:47.637Z,751.0000
2024-05-09T01:50:50.156Z,750.0000
2024-05-09T01:51:52.716Z,751.0000
2024-05-09T01:52:55.338Z,751.0000
2024-05-09T01:53:57.905Z,751.0000
2024-05-09T01:55:03.524Z,750.0000
2024-05-09T01:56:03.166Z,751.0000
2024-05-09T01:57:05.704Z,749.0000
2024-05-09T01:58:08.210Z,749.0000
2024-05-09T01:59:10.857Z,752.0000
2024-05-09T02:00:18.798Z,755.0000
2024-05-09T02:01:16.027Z,757.0000
2024-05-09T02:02:18.701Z,759.0000
2024-05-09T02:03:21.472Z,759.0000
2024-05-09T02:04:23.941Z,760.0000
2024-05-09T02:05:26.353Z,761.0000
2024-05-09T02:06:28.908Z,760.0000
2024-05-09T02:07:31.497Z,760.0000
2024-05-09T02:08:34.222Z,759.0000
2024-05-09T02:09:36.694Z,758.0000
2024-05-09T02:10:39.270Z,757.0000
2024-05-09T02:11:41.951Z,759.0000
2024-05-09T02:12:44.423Z,760.0000
2024-05-09T02:13:47.017Z,762.0000
2024-05-09T02:14:49.714Z,760.0000
2024-05-09T02:15:52.262Z,759.0000
2024-05-09T02:16:54.831Z,758.0000
2024-05-09T02:17:57.479Z,757.0000
2024-05-09T02:19:00.013Z,757.0000
2024-05-09T02:20:02.765Z,756.0000
2024-05-09T02:21:05.256Z,757.0000
2024-05-09T02:22:07.681Z,756.0000
2024-05-09T02:23:10.368Z,757.0000
2024-05-09T02:24:12.861Z,759.0000
2024-05-09T02:25:15.557Z,759.0000
2024-05-09T02:26:18.132Z,759.0000
2024-05-09T02:27:20.631Z,759.0000
2024-05-09T02:28:23.301Z,759.0000
2024-05-09T02:29:25.916Z,758.0000
2024-05-09T02:30:36.373Z,759.0000
2024-05-09T02:31:30.958Z,757.0000
2024-05-09T02:32:33.696Z,757.0000
2024-05-09T02:33:36.479Z,755.0000
2024-05-09T02:34:38.848Z,754.0000
2024-05-09T02:35:41.455Z,755.0000
2024-05-09T02:36:43.873Z,756.0000
2024-05-09T02:37:46.664Z,758.0000
2024-05-09T02:38:49.043Z,759.0000
2024-05-09T02:39:51.625Z,758.0000
2024-05-09T02:40:54.234Z,758.0000
2024-05-09T02:41:56.793Z,758.0000
2024-05-09T02:42:59.438Z,758.0000
2024-05-09T02:44:02.021Z,757.0000
2024-05-09T02:45:04.536Z,756.0000
2024-05-09T02:46:07.161Z,756.0000
2024-05-09T02:47:09.843Z,757.0000
2024-05-09T02:48:13.379Z,757.0000
2024-05-09T02:49:14.925Z,757.0000
2024-05-09T02:50:25.998Z,758.0000
2024-05-09T02:51:20.104Z,757.0000
2024-05-09T02:52:22.620Z,757.0000
2024-05-09T02:53:25.270Z,755.0000
2024-05-09T02:54:27.819Z,755.0000
2024-05-09T02:55:30.382Z,754.0000
2024-05-09T02:56:33.027Z,753.0000
2024-05-09T02:57:35.534Z,754.0000
2024-05-09T02:58:38.164Z,755.0000
2024-05-09T02:59:40.720Z,756.0000
2024-05-09T03:00:43.434Z,758.0000
2024-05-09T03:01:46.064Z,758.0000
2024-05-09T03:02:48.619Z,761.0000
2024-05-09T03:03:51.180Z,761.0000
2024-05-09T03:04:53.764Z,760.0000
2024-05-09T03:05:56.387Z,758.0000
2024-05-09T03:06:58.843Z,758.0000
2024-05-09T03:08:01.532Z,757.0000
2024-05-09T03:09:04.000Z,759.0000
2024-05-09T03:10:12.218Z,756.0000
2024-05-09T03:11:09.248Z,756.0000
2024-05-09T03:12:12.015Z,757.0000
2024-05-09T03:13:15.606Z,758.0000
2024-05-09T03:14:17.013Z,759.0000
2024-05-09T03:15:19.478Z,759.0000
2024-05-09T03:16:22.047Z,759.0000
2024-05-09T03:17:24.921Z,760.0000
2024-05-09T03:18:27.380Z,761.0000
2024-05-09T03:19:29.886Z,762.0000
2024-05-09T03:20:34.757Z,763.0000
2024-05-09T03:21:34.994Z,764.0000
2024-05-09T03:22:37.555Z,764.0000
2024-05-09T03:23:40.232Z,764.0000
2024-05-09T03:24:42.728Z,767.0000
2024-05-09T03:25:45.394Z,767.0000
2024-05-09T03:26:47.902Z,766.0000
2024-05-09T03:27:50.484Z,767.0000
2024-05-09T03:28:53.136Z,767.0000
2024-05-09T03:29:55.657Z,768.0000
2024-05-09T03:30:58.234Z,769.0000
2024-05-09T03:32:00.954Z,764.0000
2024-05-09T03:33:03.625Z,765.0000
2024-05-09T03:34:06.183Z,764.0000
2024-05-09T03:35:08.625Z,765.0000
2024-05-09T03:36:11.537Z,766.0000
2024-05-09T03:37:13.784Z,764.0000
2024-05-09T03:38:16.572Z,762.0000
2024-05-09T03:39:18.927Z,760.0000
2024-05-09T03:40:26.358Z,759.0000
2024-05-09T03:41:24.159Z,761.0000
2024-05-09T03:42:26.685Z,762.0000
2024-05-09T03:43:29.253Z,764.0000
2024-05-09T03:44:31.928Z,766.0000
2024-05-09T03:45:34.452Z,764.0000
2024-05-09T03:46:37.034Z,762.0000
2024-05-09T03:47:39.782Z,760.0000
2024-05-09T03:48:42.308Z,761.0000
2024-05-09T03:49:44.862Z,762.0000
2024-05-09T03:50:47.474Z,763.0000
2024-05-09T03:51:49.939Z,763.0000
2024-05-09T03:52:52.655Z,761.0000
2024-05-09T03:53:55.177Z,760.0000
2024-05-09T03:54:57.736Z,759.0000
2024-05-09T03:56:00.394Z,758.0000
2024-05-09T03:57:02.877Z,759.0000
2024-05-09T03:58:05.455Z,757.0000
2024-05-09T03:59:08.089Z,758.0000
2024-05-09T04:00:17.824Z,759.0000
2024-05-09T04:01:13.252Z,758.0000
2024-05-09T04:02:15.864Z,759.0000
2024-05-09T04:03:18.758Z,759.0000
2024-05-09T04:04:21.090Z,760.0000
2024-05-09T04:05:23.562Z,760.0000
2024-05-09T04:06:26.176Z,761.0000
2024-05-09T04:07:28.773Z,763.0000
2024-05-09T04:08:31.367Z,764.0000
2024-05-09T04:09:33.903Z,765.0000
2024-05-09T04:10:36.472Z,764.0000
2024-05-09T04:11:39.156Z,764.0000
2024-05-09T04:12:41.666Z,766.0000
2024-05-09T04:13:44.261Z,767.0000
2024-05-09T04:14:46.823Z,767.0000
2024-05-09T04:15:49.406Z,768.0000
2024-05-09T04:16:52.076Z,769.0000
2024-05-09T04:17:54.922Z,770.0000
2024-05-09T04:18:57.270Z,771.0000
2024-05-09T04:19:59.787Z,772.0000
2024-05-09T04:21:02.501Z,771.0000
2024-05-09T04:22:04.912Z,771.0000
2024-05-09T04:23:08.603Z,770.0000
2024-05-09T04:24:10.066Z,770.0000
2024-05-09T04:25:12.683Z,768.0000
2024-05-09T04:26:15.266Z,769.0000
2024-05-09T04:27:17.871Z,771.0000
2024-05-09T04:28:20.400Z,773.0000
2024-05-09T04:29:23.041Z,775.0000
2024-05-09T04:30:34.035Z,776.0000
2024-05-09T04:31:28.166Z,774.0000
2024-05-09T04:32:30.954Z,774.0000
2024-05-09T04:33:33.575Z,744.0000
2024-05-09T04:34:36.031Z,748.0000
2024-05-09T04:35:38.913Z,799.0000
2024-05-09T04:36:43.861Z,743.0000
2024-05-09T04:37:43.762Z,740.0000
2024-05-09T04:38:46.310Z,737.0000
2024-05-09T04:39:48.843Z,735.0000
2024-05-09T04:40:51.529Z,734.0000
2024-05-09T04:41:54.018Z,733.0000
2024-05-09T04:42:56.610Z,733.0000
2024-05-09T04:43:59.206Z,732.0000
2024-05-09T04:45:01.764Z,731.0000
2024-05-09T04:46:04.345Z,732.0000
2024-05-09T04:47:06.984Z,733.0000
2024-05-09T04:48:09.806Z,735.0000
2024-05-09T04:49:12.214Z,738.0000
2024-05-09T04:50:20.987Z,739.0000
2024-05-09T04:51:17.323Z,736.0000
2024-05-09T04:52:19.889Z,689.0000
2024-05-09T04:53:22.512Z,768.0000
2024-05-09T04:54:33.809Z,774.0000
2024-05-09T04:55:27.677Z,774.0000
2024-05-09T04:56:30.234Z,773.0000
2024-05-09T04:57:32.785Z,758.0000
2024-05-09T04:58:35.371Z,772.0000
2024-05-09T04:59:38.018Z,775.0000
2024-05-09T05:00:41.326Z,776.0000
2024-05-09T05:01:43.118Z,775.0000
2024-05-09T05:02:45.784Z,775.0000
2024-05-09T05:03:48.420Z,775.0000
2024-05-09T05:04:51.021Z,775.0000
2024-05-09T05:05:53.512Z,771.0000
2024-05-09T05:06:57.779Z,768.0000
2024-05-09T05:07:58.695Z,769.0000
2024-05-09T05:09:01.245Z,770.0000
2024-05-09T05:10:05.749Z,770.0000
2024-05-09T05:11:06.447Z,769.0000
2024-05-09T05:12:09.165Z,768.0000
2024-05-09T05:13:11.577Z,767.0000
2024-05-09T05:14:14.180Z,767.0000
2024-05-09T05:15:16.732Z,767.0000
2024-05-09T05:16:19.322Z,768.0000
2024-05-09T05:17:22.010Z,768.0000
2024-05-09T05:18:24.650Z,770.0000
2024-05-09T05:19:27.299Z,773.0000
2024-05-09T05:20:33.593Z,775.0000
2024-05-09T05:21:32.334Z,774.0000
2024-05-09T05:22:34.870Z,774.0000
2024-05-09T05:23:37.505Z,772.0000
2024-05-09T05:24:39.991Z,770.0000
2024-05-09T05:25:42.585Z,769.0000
2024-05-09T05:26:45.193Z,770.0000
2024-05-09T05:27:47.743Z,770.0000
2024-05-09T05:28:50.377Z,768.0000
2024-05-09T05:29:52.941Z,765.0000
2024-05-09T05:30:55.522Z,761.0000
2024-05-09T05:31:58.210Z,761.0000
2024-05-09T05:33:01.001Z,764.0000
2024-05-09T05:34:03.355Z,764.0000
2024-05-09T05:35:05.913Z,765.0000
2024-05-09T05:36:08.466Z,764.0000
2024-05-09T05:37:11.008Z,766.0000
2024-05-09T05:38:13.657Z,767.0000
2024-05-09T05:39:16.249Z,767.0000
2024-05-09T05:40:28.014Z,765.0000
2024-05-09T05:41:21.432Z,765.0000
2024-05-09T05:42:24.004Z,764.0000
2024-05-09T05:43:26.591Z,766.0000
2024-05-09T05:44:29.306Z,763.0000
2024-05-09T05:45:31.757Z,764.0000
2024-05-09T05:46:34.359Z,766.0000
2024-05-09T05:47:37.043Z,767.0000
2024-05-09T05:48:39.795Z,766.0000
2024-05-09T05:49:42.139Z,768.0000
2024-05-09T05:50:44.779Z,768.0000
2024-05-09T05:51:47.314Z,768.0000
2024-05-09T05:52:49.882Z,769.0000
2024-05-09T05:53:52.459Z,768.0000
2024-05-09T05:54:55.048Z,767.0000
2024-05-09T05:55:57.682Z,769.0000
2024-05-09T05:57:00.216Z,769.0000
2024-05-09T05:58:02.875Z,769.0000
2024-05-09T05:59:05.417Z,768.0000
2024-05-09T06:00:09.782Z,769.0000
2024-05-09T06:01:10.562Z,771.0000
2024-05-09T06:02:13.230Z,772.0000
2024-05-09T06:03:15.838Z,775.0000
2024-05-09T06:04:18.455Z,774.0000
2024-05-09T06:05:20.898Z,776.0000
2024-05-09T06:06:23.469Z,776.0000
2024-05-09T06:07:26.031Z,775.0000
2024-05-09T06:08:30.532Z,775.0000
2024-05-09T06:09:31.276Z,775.0000
2024-05-09T06:10:38.868Z,775.0000
2024-05-09T06:11:36.434Z,775.0000
2024-05-09T06:12:38.969Z,777.0000
2024-05-09T06:13:41.537Z,775.0000
2024-05-09T06:14:44.123Z,771.0000
2024-05-09T06:15:46.720Z,767.0000
2024-05-09T06:16:49.337Z,768.0000
2024-05-09T06:17:51.999Z,768.0000
2024-05-09T06:18:54.688Z,769.0000
2024-05-09T06:19:57.074Z,772.0000
2024-05-09T06:20:59.679Z,771.0000
2024-05-09T06:22:02.218Z,770.0000
2024-05-09T06:23:05.062Z,768.0000
2024-05-09T06:24:07.384Z,767.0000
2024-05-09T06:25:09.983Z,769.0000
2024-05-09T06:26:12.583Z,767.0000
2024-05-09T06:27:15.146Z,768.0000
2024-05-09T06:28:17.710Z,767.0000
2024-05-09T06:29:20.341Z,769.0000
2024-05-09T06:30:30.277Z,769.0000
2024-05-09T06:31:25.476Z,771.0000
2024-05-09T06:32:28.237Z,769.0000
2024-05-09T06:33:30.853Z,769.0000
2024-05-09T06:34:33.387Z,768.0000
2024-05-09T06:35:36.114Z,769.0000
2024-05-09T06:36:38.514Z,770.0000
2024-05-09T06:37:40.968Z,770.0000
2024-05-09T06:38:43.566Z,768.0000
2024-05-09T06:39:46.136Z,767.0000
2024-05-09T06:40:48.783Z,770.0000
2024-05-09T06:41:51.317Z,774.0000
2024-05-09T06:42:53.881Z,778.0000
2024-05-09T06:43:56.513Z,776.0000
2024-05-09T06:44:59.072Z,773.0000
2024-05-09T06:46:01.663Z,769.0000
2024-05-09T06:47:04.324Z,767.0000
2024-05-09T06:48:07.080Z,763.0000
2024-05-09T06:49:09.560Z,761.0000
2024-05-09T06:50:20.217Z,763.0000
2024-05-09T06:51:14.729Z,761.0000
2024-05-09T06:52:17.157Z,762.0000
2024-05-09T06:53:19.755Z,763.0000
2024-05-09T06:54:22.331Z,762.0000
2024-05-09T06:55:24.891Z,761.0000
2024-05-09T06:56:27.518Z,763.0000
2024-05-09T06:57:30.075Z,763.0000
2024-05-09T06:58:32.649Z,763.0000
2024-05-09T06:59:35.380Z,762.0000
2024-05-09T07:00:40.340Z,760.0000
2024-05-09T07:01:40.483Z,761.0000
2024-05-09T07:02:43.116Z,764.0000
2024-05-09T07:03:45.733Z,764.0000
2024-05-09T07:04:48.244Z,764.0000
2024-05-09T07:05:50.757Z,763.0000
2024-05-09T07:06:53.370Z,763.0000
2024-05-09T07:07:55.916Z,763.0000
2024-05-09T07:08:58.527Z,763.0000
2024-05-09T07:10:01.086Z,755.0000
2024-05-09T07:11:03.809Z,654.0000
2024-05-09T07:12:06.373Z,723.0000
2024-05-09T07:13:08.823Z,761.0000
2024-05-09T07:14:11.495Z,761.0000
2024-05-09T07:15:13.984Z,762.0000
2024-05-09T07:16:16.625Z,760.0000
2024-05-09T07:17:19.269Z,758.0000
2024-05-09T07:18:21.941Z,756.0000
2024-05-09T07:19:24.576Z,754.0000
2024-05-09T07:20:34.085Z,752.0000
2024-05-09T07:21:29.485Z,751.0000
2024-05-09T07:22:32.064Z,750.0000
2024-05-09T07:23:34.815Z,750.0000
2024-05-09T07:24:37.240Z,753.0000
2024-05-09T07:25:39.832Z,755.0000
2024-05-09T07:26:42.463Z,757.0000
2024-05-09T07:27:44.972Z,756.0000
2024-05-09T07:28:47.618Z,756.0000
2024-05-09T07:29:50.134Z,754.0000
2024-05-09T07:30:52.729Z,754.0000
2024-05-09T07:31:55.343Z,754.0000
2024-05-09T07:32:58.115Z,753.0000
2024-05-09T07:34:00.705Z,755.0000
2024-05-09T07:35:03.182Z,755.0000
2024-05-09T07:36:05.657Z,754.0000
2024-05-09T07:37:08.262Z,754.0000
2024-05-09T07:38:10.862Z,755.0000
2024-05-09T07:39:13.367Z,756.0000
2024-05-09T07:40:24.882Z,755.0000
2024-05-09T07:41:18.594Z,759.0000
2024-05-09T07:42:21.126Z,763.0000
2024-05-09T07:43:23.743Z,763.0000
2024-05-09T07:44:26.285Z,762.0000
2024-05-09T07:45:45.219Z,761.0000
2024-05-09T07:47:37.114Z,761.0000
2024-05-09T07:50:34.437Z,760.0000
2024-05-09T07:53:14.438Z,755.0000
2024-05-09T07:53:34.619Z,757.0000
2024-05-09T07:53:52.382Z,757.0000
2024-05-09T07:54:52.293Z,756.0000
2024-05-09T07:55:55.248Z,753.0000
2024-05-09T07:56:57.564Z,751.0000
2024-05-09T07:57:59.914Z,753.0000
2024-05-09T07:59:02.457Z,754.0000
2024-05-09T08:00:06.655Z,757.0000
2024-05-09T08:01:07.715Z,761.0000
2024-05-09T08:02:10.374Z,761.0000
2024-05-09T08:03:12.859Z,762.0000
2024-05-09T08:04:15.469Z,761.0000
2024-05-09T08:05:18.102Z,758.0000
2024-05-09T08:06:20.538Z,757.0000
2024-05-09T08:07:23.192Z,759.0000
2024-05-09T08:08:25.722Z,757.0000
2024-05-09T08:09:28.339Z,754.0000
2024-05-09T08:10:30.960Z,754.0000
2024-05-09T08:11:33.504Z,756.0000
2024-05-09T08:12:36.099Z,755.0000
2024-05-09T08:13:38.725Z,755.0000
2024-05-09T08:14:41.213Z,756.0000
2024-05-09T08:15:43.896Z,756.0000
2024-05-09T08:16:46.390Z,756.0000
2024-05-09T08:17:49.063Z,756.0000
2024-05-09T08:18:51.671Z,760.0000
2024-05-09T08:19:54.136Z,764.0000
2024-05-09T08:20:56.719Z,768.0000
2024-05-09T08:21:59.341Z,769.0000
2024-05-09T08:23:01.887Z,769.0000
2024-05-09T08:24:04.485Z,768.0000
2024-05-09T08:25:07.076Z,769.0000
2024-05-09T08:26:09.639Z,767.0000
2024-05-09T08:27:12.242Z,769.0000
2024-05-09T08:28:14.852Z,771.0000
2024-05-09T08:29:17.407Z,776.0000
2024-05-09T08:30:25.304Z,780.0000
2024-05-09T08:31:22.792Z,786.0000
2024-05-09T08:32:25.185Z,783.0000
2024-05-09T08:33:27.835Z,783.0000
2024-05-09T08:34:30.358Z,790.0000
2024-05-09T08:35:32.934Z,793.0000
2024-05-09T08:36:35.513Z,793.0000
2024-05-09T08:37:40.483Z,796.0000
2024-05-09T08:38:40.656Z,797.0000
2024-05-09T08:39:43.258Z,800.0000
2024-05-09T08:40:45.898Z,802.0000
2024-05-09T08:41:48.398Z,813.0000
2024-05-09T08:42:51.003Z,808.0000
2024-05-09T08:43:53.562Z,802.0000
2024-05-09T08:44:56.133Z,799.0000
2024-05-09T08:45:58.766Z,801.0000
2024-05-09T08:47:01.385Z,803.0000
2024-05-09T08:48:04.070Z,806.0000
2024-05-09T08:49:06.642Z,804.0000
2024-05-09T08:50:13.783Z,809.0000
2024-05-09T08:51:11.641Z,815.0000
2024-05-09T08:52:14.229Z,813.0000
2024-05-09T08:53:16.822Z,814.0000
2024-05-09T08:54:19.395Z,817.0000
2024-05-09T08:55:21.994Z,819.0000
2024-05-09T08:56:24.600Z,820.0000
2024-05-09T08:57:27.228Z,820.0000
2024-05-09T08:58:29.721Z,821.0000
2024-05-09T08:59:32.340Z,820.0000
2024-05-09T09:00:37.310Z,816.0000
2024-05-09T09:01:38.136Z,816.0000
2024-05-09T09:02:40.250Z,815.0000
2024-05-09T09:03:42.848Z,816.0000
2024-05-09T09:04:45.295Z,818.0000
2024-05-09T09:05:47.839Z,818.0000
2024-05-09T09:06:51.453Z,820.0000
2024-05-09T09:07:52.975Z,817.0000
2024-05-09T09:08:55.550Z,818.0000
2024-05-09T09:09:58.154Z,815.0000
2024-05-09T09:11:00.761Z,808.0000
2024-05-09T09:12:03.327Z,806.0000
2024-05-09T09:13:05.932Z,806.0000
2024-05-09T09:14:08.484Z,808.0000
2024-05-09T09:15:11.076Z,809.0000
2024-05-09T09:16:13.750Z,807.0000
2024-05-09T09:17:16.338Z,806.0000
2024-05-09T09:18:19.292Z,805.0000
2024-05-09T09:19:21.581Z,806.0000
2024-05-09T09:20:29.402Z,805.0000
2024-05-09T09:21:26.773Z,800.0000
2024-05-09T09:22:29.164Z,799.0000
2024-05-09T09:23:31.880Z,800.0000
2024-05-09T09:24:34.373Z,799.0000
2024-05-09T09:25:36.920Z,796.0000
2024-05-09T09:26:39.503Z,792.0000
2024-05-09T09:27:42.167Z,791.0000
2024-05-09T09:28:44.669Z,792.0000
2024-05-09T09:29:47.293Z,789.0000
2024-05-09T09:30:49.905Z,791.0000
2024-05-09T09:31:52.445Z,791.0000
2024-05-09T09:32:55.123Z,790.0000
2024-05-09T09:33:57.936Z,792.0000
2024-05-09T09:35:00.237Z,796.0000
2024-05-09T09:36:02.753Z,796.0000
2024-05-09T09:37:05.404Z,794.0000
2024-05-09T09:38:07.992Z,794.0000
2024-05-09T09:39:10.560Z,796.0000
2024-05-09T09:40:13.468Z,794.0000
2024-05-09T09:41:15.758Z,809.0000
2024-05-09T09:42:18.265Z,791.0000
2024-05-09T09:43:21.177Z,797.0000
2024-05-09T09:44:23.412Z,802.0000
2024-05-09T09:45:26.053Z,803.0000
2024-05-09T09:46:28.740Z,806.0000
2024-05-09T09:47:31.300Z,804.0000
2024-05-09T09:48:34.080Z,801.0000
2024-05-09T09:49:36.411Z,801.0000
2024-05-09T09:50:38.965Z,800.0000
2024-05-09T09:51:41.608Z,800.0000
2024-05-09T09:52:44.123Z,802.0000
2024-05-09T09:53:46.748Z,804.0000
2024-05-09T09:54:49.381Z,807.0000
2024-05-09T09:55:51.897Z,805.0000
2024-05-09T09:56:54.453Z,802.0000
2024-05-09T09:57:57.112Z,801.0000
2024-05-09T09:58:59.621Z,800.0000
2024-05-09T10:00:03.119Z,805.0000
2024-05-09T10:01:04.986Z,807.0000
2024-05-09T10:02:07.600Z,807.0000
2024-05-09T10:03:10.133Z,803.0000
2024-05-09T10:04:12.692Z,805.0000
2024-05-09T10:05:15.160Z,804.0000
2024-05-09T10:06:17.681Z,802.0000
2024-05-09T10:07:20.354Z,799.0000
2024-05-09T10:08:22.858Z,799.0000
2024-05-09T10:09:25.473Z,800.0000
2024-05-09T10:10:32.317Z,801.0000
2024-05-09T10:11:31.679Z,802.0000
2024-05-09T10:12:33.267Z,805.0000
2024-05-09T10:13:35.863Z,808.0000
2024-05-09T10:14:38.342Z,810.0000
2024-05-09T10:15:40.966Z,810.0000
2024-05-09T10:16:43.528Z,806.0000
2024-05-09T10:17:46.150Z,804.0000
2024-05-09T10:18:48.861Z,804.0000
2024-05-09T10:19:51.389Z,802.0000
2024-05-09T10:20:53.826Z,802.0000
2024-05-09T10:21:56.427Z,802.0000
2024-05-09T10:22:59.055Z,801.0000
2024-05-09T10:24:01.583Z,801.0000
2024-05-09T10:25:05.108Z,797.0000
2024-05-09T10:26:06.748Z,797.0000
2024-05-09T10:27:09.400Z,794.0000
2024-05-09T10:28:12.081Z,790.0000
2024-05-09T10:29:14.517Z,848.0000
2024-05-09T10:30:25.816Z,832.0000
2024-05-09T10:31:19.683Z,796.0000
2024-05-09T10:32:22.363Z,799.0000
2024-05-09T10:33:24.987Z,796.0000
2024-05-09T10:34:27.632Z,793.0000
2024-05-09T10:35:30.023Z,794.0000
2024-05-09T10:36:32.644Z,795.0000
2024-05-09T10:37:35.236Z,794.0000
2024-05-09T10:38:37.748Z,791.0000
2024-05-09T10:39:40.359Z,748.0000
2024-05-09T10:40:42.964Z,790.0000
2024-05-09T10:41:45.493Z,735.0000
2024-05-09T10:42:48.183Z,923.0000
2024-05-09T10:43:50.705Z,892.0000
2024-05-09T10:44:53.338Z,798.0000
2024-05-09T10:45:55.856Z,792.0000
2024-05-09T10:46:58.437Z,884.0000
2024-05-09T10:48:01.163Z,820.0000
2024-05-09T10:49:06.294Z,781.0000
2024-05-09T10:50:12.710Z,783.0000
2024-05-09T10:51:08.744Z,779.0000
2024-05-09T10:52:11.350Z,779.0000
2024-05-09T10:53:13.895Z,777.0000
2024-05-09T10:54:16.509Z,775.0000
2024-05-09T10:55:19.285Z,778.0000
2024-05-09T10:56:21.663Z,779.0000
2024-05-09T10:57:24.230Z,778.0000
2024-05-09T10:58:26.805Z,780.0000
2024-05-09T10:59:29.400Z,780.0000
2024-05-09T11:00:35.863Z,780.0000
2024-05-09T11:01:34.639Z,778.0000
2024-05-09T11:02:37.291Z,778.0000
2024-05-09T11:03:40.127Z,780.0000
2024-05-09T11:04:42.485Z,777.0000
2024-05-09T11:05:45.094Z,778.0000
2024-05-09T11:06:47.532Z,778.0000
2024-05-09T11:07:50.071Z,777.0000
2024-05-09T11:08:52.649Z,778.0000
2024-05-09T11:09:55.301Z,778.0000
2024-05-09T11:10:57.855Z,783.0000
2024-05-09T11:12:00.463Z,786.0000
2024-05-09T11:13:03.048Z,787.0000
2024-05-09T11:14:05.565Z,827.0000
2024-05-09T11:15:08.180Z,824.0000
2024-05-09T11:16:10.801Z,833.0000
2024-05-09T11:17:13.322Z,835.0000
2024-05-09T11:18:16.063Z,659.0000
2024-05-09T11:19:18.673Z,720.0000
2024-05-09T11:20:26.942Z,775.0000
2024-05-09T11:21:23.652Z,775.0000
2024-05-09T11:22:26.289Z,779.0000
2024-05-09T11:23:28.804Z,783.0000
2024-05-09T11:24:31.407Z,783.0000
2024-05-09T11:25:33.975Z,783.0000
2024-05-09T11:26:36.612Z,784.0000
2024-05-09T11:27:39.184Z,783.0000
2024-05-09T11:28:41.734Z,783.0000
2024-05-09T11:29:44.315Z,782.0000
2024-05-09T11:30:46.983Z,782.0000
2024-05-09T11:31:49.668Z,782.0000
2024-05-09T11:32:52.298Z,782.0000
2024-05-09T11:33:54.846Z,782.0000
2024-05-09T11:34:57.244Z,781.0000
2024-05-09T11:35:59.823Z,782.0000
2024-05-09T11:37:02.494Z,780.0000
2024-05-09T11:38:04.995Z,775.0000
2024-05-09T11:39:07.593Z,773.0000
2024-05-09T11:40:16.814Z,770.0000
2024-05-09T11:41:12.774Z,771.0000
2024-05-09T11:42:15.326Z,771.0000
2024-05-09T11:43:18.053Z,770.0000
2024-05-09T11:44:20.523Z,768.0000
2024-05-09T11:45:23.148Z,771.0000
2024-05-09T11:46:25.819Z,772.0000
2024-05-09T11:47:28.289Z,774.0000
2024-05-09T11:48:31.148Z,775.0000
2024-05-09T11:49:33.563Z,776.0000
2024-05-09T11:50:36.444Z,777.0000
2024-05-09T11:51:38.637Z,776.0000
2024-05-09T11:52:41.164Z,775.0000
2024-05-09T11:53:43.762Z,776.0000
2024-05-09T11:54:46.381Z,778.0000
2024-05-09T11:55:48.946Z,781.0000
2024-05-09T11:56:51.604Z,782.0000
2024-05-09T11:57:54.097Z,782.0000
2024-05-09T11:58:56.664Z,783.0000
2024-05-09T11:59:59.249Z,783.0000
2024-05-09T12:01:01.979Z,782.0000
2024-05-09T12:02:04.589Z,780.0000
2024-05-09T12:03:07.099Z,778.0000
2024-05-09T12:04:09.699Z,777.0000
2024-05-09T12:05:12.246Z,776.0000
2024-05-09T12:06:14.769Z,777.0000
2024-05-09T12:07:17.439Z,777.0000
2024-05-09T12:08:19.934Z,779.0000
2024-05-09T12:09:22.494Z,783.0000
2024-05-09T12:10:32.125Z,783.0000
2024-05-09T12:11:27.703Z,784.0000
2024-05-09T12:12:30.302Z,784.0000
2024-05-09T12:13:32.957Z,784.0000
2024-05-09T12:14:35.447Z,783.0000
2024-05-09T12:15:38.879Z,782.0000
2024-05-09T12:16:40.653Z,779.0000
2024-05-09T12:17:43.288Z,779.0000